This is the latest recevied weather packets stored in our database for station/object SQ7ACP-3. If no packets are shown the sender has not sent any weather packets the latest 10 day(s).
| Time | Temp. | Humidity | Pressure | Rain* | Wind** | Luminosity | Snow |
|---|---|---|---|---|---|---|---|
| 1777676611 | 7.22° C | 77% | 1024.4 hPa | 0 mm | - | - | - |
| 1777676011 | 7.22° C | 77% | 1024.3 hPa | 0 mm | - | - | - |
| 1777675402 | 7.78° C | 76% | 1024.3 hPa | 0 mm | - | - | - |
| 1777674799 | 7.78° C | 75% | 1024.3 hPa | 0 mm | - | - | - |
| 1777674187 | 7.78° C | 74% | 1024.3 hPa | 0 mm | - | - | - |
| 1777673574 | 7.78° C | 73% | 1024.3 hPa | 0 mm | - | - | - |
| 1777672974 | 8.33° C | 72% | 1024.3 hPa | 0 mm | - | - | - |
| 1777672374 | 8.33° C | 72% | 1024.3 hPa | 0 mm | - | - | - |
| 1777671761 | 8.89° C | 71% | 1024.3 hPa | 0 mm | - | - | - |
| 1777671162 | 8.89° C | 70% | 1024.3 hPa | 0 mm | - | - | - |
| 1777670548 | 9.44° C | 69% | 1024.2 hPa | 0 mm | - | - | - |
| 1777669936 | 9.44° C | 68% | 1024.2 hPa | 0 mm | - | - | - |
| 1777669324 | 10° C | 67% | 1024.2 hPa | 0 mm | - | - | - |
| 1777668711 | 10° C | 67% | 1024.2 hPa | 0 mm | - | - | - |
| 1777668099 | 10.56° C | 65% | 1024.2 hPa | 0 mm | - | - | - |
| 1777667499 | 11.11° C | 64% | 1024.1 hPa | 0 mm | - | - | - |
| 1777666898 | 11.11° C | 63% | 1024.1 hPa | 0 mm | - | - | - |
| 1777666286 | 11.67° C | 61% | 1024.1 hPa | 0 mm | - | - | - |
| 1777665674 | 12.22° C | 60% | 1024.1 hPa | 0 mm | - | - | - |
| 1777665074 | 12.22° C | 58% | 1024.2 hPa | 0 mm | - | - | - |
| 1777664461 | 12.78° C | 56% | 1024.2 hPa | 0 mm | - | - | - |
| 1777662638 | 14.44° C | 49% | 1024 hPa | 0 mm | - | - | - |
| 1777662036 | 15° C | 48% | 1023.9 hPa | 0 mm | - | - | - |
| 1777660823 | 15.56° C | 45% | 1023.9 hPa | 0 mm | - | - | - |
| 1777660212 | 16.11° C | 44% | 1023.8 hPa | 0 mm | - | - | - |
* Rain latest hour (hover to see other rain measurements)
** Current wind speed in m/s (hover to see current wind gust speed)